sensor_id;sensor_type;location;lat;lon;timestamp;P1;durP1;ratioP1;P2;durP2;ratioP2
42094;SDS011;27753;55.724;37.612;2024-02-16T00:01:00;18.17;;;9.50;;
42094;SDS011;27753;55.724;37.612;2024-02-16T00:03:27;18.90;;;10.52;;
42094;SDS011;27753;55.724;37.612;2024-02-16T00:05:53;17.67;;;10.65;;
42094;SDS011;27753;55.724;37.612;2024-02-16T00:08:19;16.60;;;9.45;;
42094;SDS011;27753;55.724;37.612;2024-02-16T00:10:45;29.95;;;10.55;;
42094;SDS011;27753;55.724;37.612;2024-02-16T00:13:12;19.08;;;10.95;;
42094;SDS011;27753;55.724;37.612;2024-02-16T00:15:39;15.77;;;9.25;;
42094;SDS011;27753;55.724;37.612;2024-02-16T00:18:05;19.42;;;9.68;;
42094;SDS011;27753;55.724;37.612;2024-02-16T00:20:31;20.70;;;10.23;;
42094;SDS011;27753;55.724;37.612;2024-02-16T00:22:57;16.23;;;9.23;;
42094;SDS011;27753;55.724;37.612;2024-02-16T00:25:25;21.15;;;12.40;;
42094;SDS011;27753;55.724;37.612;2024-02-16T00:27:51;16.00;;;10.15;;
42094;SDS011;27753;55.724;37.612;2024-02-16T00:30:19;17.33;;;9.70;;
42094;SDS011;27753;55.724;37.612;2024-02-16T00:32:46;19.48;;;10.60;;
42094;SDS011;27753;55.724;37.612;2024-02-16T00:35:12;16.48;;;10.13;;
42094;SDS011;27753;55.724;37.612;2024-02-16T00:37:41;16.88;;;9.95;;
42094;SDS011;27753;55.724;37.612;2024-02-16T00:40:07;16.30;;;10.50;;
42094;SDS011;27753;55.724;37.612;2024-02-16T00:42:34;19.60;;;10.17;;
42094;SDS011;27753;55.724;37.612;2024-02-16T00:45:00;20.17;;;11.13;;
42094;SDS011;27753;55.724;37.612;2024-02-16T00:47:26;22.02;;;9.95;;
42094;SDS011;27753;55.724;37.612;2024-02-16T00:49:54;21.92;;;11.65;;
42094;SDS011;27753;55.724;37.612;2024-02-16T00:52:21;15.70;;;8.68;;
42094;SDS011;27753;55.724;37.612;2024-02-16T00:54:47;20.17;;;9.45;;
42094;SDS011;27753;55.724;37.612;2024-02-16T00:57:14;19.40;;;9.37;;
42094;SDS011;27753;55.724;37.612;2024-02-16T00:59:40;18.35;;;10.48;;
42094;SDS011;27753;55.724;37.612;2024-02-16T01:02:06;17.00;;;9.73;;
42094;SDS011;27753;55.724;37.612;2024-02-16T01:04:32;20.27;;;9.68;;
42094;SDS011;27753;55.724;37.612;2024-02-16T01:06:58;17.35;;;11.82;;
42094;SDS011;27753;55.724;37.612;2024-02-16T01:09:24;17.33;;;9.18;;
42094;SDS011;27753;55.724;37.612;2024-02-16T01:11:52;18.63;;;10.90;;
42094;SDS011;27753;55.724;37.612;2024-02-16T01:14:18;21.88;;;11.00;;
42094;SDS011;27753;55.724;37.612;2024-02-16T01:16:44;17.90;;;10.93;;
42094;SDS011;27753;55.724;37.612;2024-02-16T01:19:11;14.55;;;8.68;;
42094;SDS011;27753;55.724;37.612;2024-02-16T01:21:37;19.00;;;10.50;;
42094;SDS011;27753;55.724;37.612;2024-02-16T01:24:03;13.80;;;8.82;;
42094;SDS011;27753;55.724;37.612;2024-02-16T01:26:30;25.52;;;12.80;;
42094;SDS011;27753;55.724;37.612;2024-02-16T01:28:57;18.95;;;10.23;;
42094;SDS011;27753;55.724;37.612;2024-02-16T01:31:23;18.83;;;11.20;;
42094;SDS011;27753;55.724;37.612;2024-02-16T01:33:49;20.77;;;10.25;;
42094;SDS011;27753;55.724;37.612;2024-02-16T01:36:15;16.63;;;10.32;;
42094;SDS011;27753;55.724;37.612;2024-02-16T01:38:41;19.27;;;9.77;;
42094;SDS011;27753;55.724;37.612;2024-02-16T01:41:07;22.60;;;10.10;;
42094;SDS011;27753;55.724;37.612;2024-02-16T01:43:34;23.45;;;10.73;;
42094;SDS011;27753;55.724;37.612;2024-02-16T01:45:59;20.80;;;10.82;;
42094;SDS011;27753;55.724;37.612;2024-02-16T01:48:26;22.45;;;10.07;;
42094;SDS011;27753;55.724;37.612;2024-02-16T01:50:53;20.10;;;10.70;;
42094;SDS011;27753;55.724;37.612;2024-02-16T01:53:19;17.95;;;9.57;;
42094;SDS011;27753;55.724;37.612;2024-02-16T01:55:46;19.40;;;10.15;;
42094;SDS011;27753;55.724;37.612;2024-02-16T01:58:12;19.60;;;10.20;;
42094;SDS011;27753;55.724;37.612;2024-02-16T02:00:39;18.58;;;10.75;;
42094;SDS011;27753;55.724;37.612;2024-02-16T02:03:07;17.08;;;10.07;;
42094;SDS011;27753;55.724;37.612;2024-02-16T02:05:33;19.27;;;10.90;;
42094;SDS011;27753;55.724;37.612;2024-02-16T02:08:08;18.10;;;12.15;;
42094;SDS011;27753;55.724;37.612;2024-02-16T02:10:37;18.90;;;10.40;;
42094;SDS011;27753;55.724;37.612;2024-02-16T02:13:03;22.45;;;10.55;;
42094;SDS011;27753;55.724;37.612;2024-02-16T02:15:29;20.02;;;10.98;;
42094;SDS011;27753;55.724;37.612;2024-02-16T02:17:55;22.15;;;12.07;;
42094;SDS011;27753;55.724;37.612;2024-02-16T02:20:23;18.10;;;10.23;;
42094;SDS011;27753;55.724;37.612;2024-02-16T02:22:49;18.42;;;11.35;;
42094;SDS011;27753;55.724;37.612;2024-02-16T02:25:15;21.42;;;11.50;;
42094;SDS011;27753;55.724;37.612;2024-02-16T02:27:40;18.15;;;11.57;;
42094;SDS011;27753;55.724;37.612;2024-02-16T02:30:07;21.38;;;11.30;;
42094;SDS011;27753;55.724;37.612;2024-02-16T02:32:34;21.07;;;11.73;;
42094;SDS011;27753;55.724;37.612;2024-02-16T02:35:00;20.35;;;11.43;;
42094;SDS011;27753;55.724;37.612;2024-02-16T02:37:27;21.45;;;11.90;;
42094;SDS011;27753;55.724;37.612;2024-02-16T02:39:52;21.38;;;11.30;;
42094;SDS011;27753;55.724;37.612;2024-02-16T02:42:18;20.17;;;11.20;;
42094;SDS011;27753;55.724;37.612;2024-02-16T02:44:44;18.63;;;10.70;;
42094;SDS011;27753;55.724;37.612;2024-02-16T02:47:15;25.95;;;13.10;;
42094;SDS011;27753;55.724;37.612;2024-02-16T02:49:42;25.58;;;12.90;;
42094;SDS011;27753;55.724;37.612;2024-02-16T02:52:08;20.60;;;11.98;;
42094;SDS011;27753;55.724;37.612;2024-02-16T02:54:34;26.30;;;13.70;;
42094;SDS011;27753;55.724;37.612;2024-02-16T02:57:01;20.52;;;11.48;;
42094;SDS011;27753;55.724;37.612;2024-02-16T02:59:27;20.25;;;11.48;;
42094;SDS011;27753;55.724;37.612;2024-02-16T03:01:53;19.25;;;11.77;;
42094;SDS011;27753;55.724;37.612;2024-02-16T03:04:19;23.67;;;12.95;;
42094;SDS011;27753;55.724;37.612;2024-02-16T03:06:45;21.08;;;11.93;;
42094;SDS011;27753;55.724;37.612;2024-02-16T03:09:11;19.45;;;11.02;;
42094;SDS011;27753;55.724;37.612;2024-02-16T03:11:40;17.50;;;10.50;;
42094;SDS011;27753;55.724;37.612;2024-02-16T03:14:06;19.73;;;10.73;;
42094;SDS011;27753;55.724;37.612;2024-02-16T03:16:33;21.45;;;11.30;;
42094;SDS011;27753;55.724;37.612;2024-02-16T03:18:59;17.55;;;10.60;;
42094;SDS011;27753;55.724;37.612;2024-02-16T03:21:25;17.10;;;10.88;;
42094;SDS011;27753;55.724;37.612;2024-02-16T03:23:51;18.60;;;11.50;;
42094;SDS011;27753;55.724;37.612;2024-02-16T03:26:17;27.80;;;13.00;;
42094;SDS011;27753;55.724;37.612;2024-02-16T03:28:45;20.48;;;11.25;;
42094;SDS011;27753;55.724;37.612;2024-02-16T03:31:18;27.73;;;13.10;;
42094;SDS011;27753;55.724;37.612;2024-02-16T03:33:45;21.45;;;10.98;;
42094;SDS011;27753;55.724;37.612;2024-02-16T03:36:12;23.70;;;13.80;;
42094;SDS011;27753;55.724;37.612;2024-02-16T03:38:43;20.08;;;11.35;;
42094;SDS011;27753;55.724;37.612;2024-02-16T03:41:17;23.73;;;12.82;;
42094;SDS011;27753;55.724;37.612;2024-02-16T03:43:47;26.95;;;13.50;;
42094;SDS011;27753;55.724;37.612;2024-02-16T03:46:13;23.15;;;13.20;;
42094;SDS011;27753;55.724;37.612;2024-02-16T03:48:39;25.42;;;13.52;;
42094;SDS011;27753;55.724;37.612;2024-02-16T03:51:05;29.60;;;15.30;;
42094;SDS011;27753;55.724;37.612;2024-02-16T03:53:31;34.75;;;16.77;;
42094;SDS011;27753;55.724;37.612;2024-02-16T03:55:57;33.15;;;17.52;;
42094;SDS011;27753;55.724;37.612;2024-02-16T03:58:23;34.72;;;17.60;;
42094;SDS011;27753;55.724;37.612;2024-02-16T04:00:49;34.83;;;19.38;;
42094;SDS011;27753;55.724;37.612;2024-02-16T04:03:16;42.38;;;20.27;;
42094;SDS011;27753;55.724;37.612;2024-02-16T04:05:42;45.85;;;21.27;;
42094;SDS011;27753;55.724;37.612;2024-02-16T04:08:08;33.13;;;20.08;;
42094;SDS011;27753;55.724;37.612;2024-02-16T04:10:34;35.05;;;19.25;;
42094;SDS011;27753;55.724;37.612;2024-02-16T04:13:00;36.15;;;18.05;;
42094;SDS011;27753;55.724;37.612;2024-02-16T04:15:27;28.47;;;14.73;;
42094;SDS011;27753;55.724;37.612;2024-02-16T04:17:53;34.92;;;18.58;;
42094;SDS011;27753;55.724;37.612;2024-02-16T04:20:19;27.35;;;18.25;;
42094;SDS011;27753;55.724;37.612;2024-02-16T04:22:45;27.38;;;14.85;;
42094;SDS011;27753;55.724;37.612;2024-02-16T04:25:11;30.42;;;17.67;;
42094;SDS011;27753;55.724;37.612;2024-02-16T04:27:37;33.70;;;17.90;;
42094;SDS011;27753;55.724;37.612;2024-02-16T04:30:03;32.67;;;18.15;;
42094;SDS011;27753;55.724;37.612;2024-02-16T04:32:30;28.10;;;15.90;;
42094;SDS011;27753;55.724;37.612;2024-02-16T04:34:56;29.38;;;15.85;;
42094;SDS011;27753;55.724;37.612;2024-02-16T04:37:22;29.55;;;16.48;;
42094;SDS011;27753;55.724;37.612;2024-02-16T04:39:49;26.73;;;13.68;;
42094;SDS011;27753;55.724;37.612;2024-02-16T04:42:15;23.83;;;14.20;;
42094;SDS011;27753;55.724;37.612;2024-02-16T04:44:41;29.83;;;13.68;;
42094;SDS011;27753;55.724;37.612;2024-02-16T04:47:07;22.85;;;13.85;;
42094;SDS011;27753;55.724;37.612;2024-02-16T04:49:34;26.73;;;15.02;;
42094;SDS011;27753;55.724;37.612;2024-02-16T04:52:00;29.25;;;14.18;;
42094;SDS011;27753;55.724;37.612;2024-02-16T04:54:26;29.60;;;14.05;;
42094;SDS011;27753;55.724;37.612;2024-02-16T04:56:52;23.35;;;15.35;;
42094;SDS011;27753;55.724;37.612;2024-02-16T04:59:18;26.80;;;13.70;;
42094;SDS011;27753;55.724;37.612;2024-02-16T05:01:44;22.85;;;13.57;;
42094;SDS011;27753;55.724;37.612;2024-02-16T05:04:10;22.67;;;13.00;;
42094;SDS011;27753;55.724;37.612;2024-02-16T05:06:38;27.00;;;13.63;;
42094;SDS011;27753;55.724;37.612;2024-02-16T05:09:05;24.25;;;13.15;;
42094;SDS011;27753;55.724;37.612;2024-02-16T05:11:34;24.55;;;13.10;;
42094;SDS011;27753;55.724;37.612;2024-02-16T05:14:00;28.20;;;14.93;;
42094;SDS011;27753;55.724;37.612;2024-02-16T05:16:29;24.67;;;15.80;;
42094;SDS011;27753;55.724;37.612;2024-02-16T05:18:55;19.77;;;12.38;;
42094;SDS011;27753;55.724;37.612;2024-02-16T05:21:24;20.55;;;12.35;;
42094;SDS011;27753;55.724;37.612;2024-02-16T05:23:50;22.75;;;12.60;;
42094;SDS011;27753;55.724;37.612;2024-02-16T05:26:15;24.25;;;12.45;;
42094;SDS011;27753;55.724;37.612;2024-02-16T05:28:41;26.10;;;12.13;;
42094;SDS011;27753;55.724;37.612;2024-02-16T05:31:15;18.33;;;10.32;;
42094;SDS011;27753;55.724;37.612;2024-02-16T05:33:43;21.23;;;11.40;;
42094;SDS011;27753;55.724;37.612;2024-02-16T05:36:10;21.33;;;11.13;;
42094;SDS011;27753;55.724;37.612;2024-02-16T05:38:37;24.77;;;13.82;;
42094;SDS011;27753;55.724;37.612;2024-02-16T05:41:07;22.92;;;13.50;;
42094;SDS011;27753;55.724;37.612;2024-02-16T05:43:33;24.50;;;13.53;;
42094;SDS011;27753;55.724;37.612;2024-02-16T05:45:59;17.53;;;12.57;;
42094;SDS011;27753;55.724;37.612;2024-02-16T05:48:25;19.02;;;10.73;;
42094;SDS011;27753;55.724;37.612;2024-02-16T05:51:02;22.15;;;13.13;;
42094;SDS011;27753;55.724;37.612;2024-02-16T05:53:28;20.65;;;11.15;;
42094;SDS011;27753;55.724;37.612;2024-02-16T05:55:53;22.30;;;12.68;;
42094;SDS011;27753;55.724;37.612;2024-02-16T05:58:20;20.38;;;12.02;;
42094;SDS011;27753;55.724;37.612;2024-02-16T06:00:46;21.90;;;10.98;;
42094;SDS011;27753;55.724;37.612;2024-02-16T06:03:13;19.25;;;11.15;;
42094;SDS011;27753;55.724;37.612;2024-02-16T06:05:39;19.38;;;12.23;;
42094;SDS011;27753;55.724;37.612;2024-02-16T06:08:06;27.92;;;13.18;;
42094;SDS011;27753;55.724;37.612;2024-02-16T06:10:32;20.10;;;10.75;;
42094;SDS011;27753;55.724;37.612;2024-02-16T06:12:59;24.08;;;11.88;;
42094;SDS011;27753;55.724;37.612;2024-02-16T06:15:24;23.20;;;12.50;;
42094;SDS011;27753;55.724;37.612;2024-02-16T06:17:51;26.67;;;13.40;;
42094;SDS011;27753;55.724;37.612;2024-02-16T06:20:17;19.77;;;11.80;;
42094;SDS011;27753;55.724;37.612;2024-02-16T06:22:43;21.65;;;14.10;;
42094;SDS011;27753;55.724;37.612;2024-02-16T06:25:09;27.25;;;12.70;;
42094;SDS011;27753;55.724;37.612;2024-02-16T06:27:35;21.73;;;12.20;;
42094;SDS011;27753;55.724;37.612;2024-02-16T06:30:02;31.73;;;11.77;;
42094;SDS011;27753;55.724;37.612;2024-02-16T06:32:32;19.38;;;11.30;;
42094;SDS011;27753;55.724;37.612;2024-02-16T06:34:58;22.27;;;11.27;;
42094;SDS011;27753;55.724;37.612;2024-02-16T06:37:24;25.83;;;13.25;;
42094;SDS011;27753;55.724;37.612;2024-02-16T06:39:50;22.50;;;12.32;;
42094;SDS011;27753;55.724;37.612;2024-02-16T06:42:16;30.75;;;14.40;;
42094;SDS011;27753;55.724;37.612;2024-02-16T06:44:42;27.13;;;15.13;;
42094;SDS011;27753;55.724;37.612;2024-02-16T06:47:08;27.40;;;13.50;;
42094;SDS011;27753;55.724;37.612;2024-02-16T06:49:33;30.45;;;16.13;;
42094;SDS011;27753;55.724;37.612;2024-02-16T06:51:59;25.52;;;14.82;;
42094;SDS011;27753;55.724;37.612;2024-02-16T06:54:25;29.00;;;14.43;;
42094;SDS011;27753;55.724;37.612;2024-02-16T06:56:51;23.08;;;13.00;;
42094;SDS011;27753;55.724;37.612;2024-02-16T06:59:17;25.02;;;13.15;;
42094;SDS011;27753;55.724;37.612;2024-02-16T07:01:43;26.00;;;16.02;;
42094;SDS011;27753;55.724;37.612;2024-02-16T07:04:09;32.15;;;13.40;;
42094;SDS011;27753;55.724;37.612;2024-02-16T07:06:35;30.33;;;16.15;;
42094;SDS011;27753;55.724;37.612;2024-02-16T07:09:01;23.50;;;14.20;;
42094;SDS011;27753;55.724;37.612;2024-02-16T07:11:30;34.60;;;16.33;;
42094;SDS011;27753;55.724;37.612;2024-02-16T07:13:55;21.15;;;14.65;;
42094;SDS011;27753;55.724;37.612;2024-02-16T07:16:21;24.85;;;11.93;;
42094;SDS011;27753;55.724;37.612;2024-02-16T07:18:47;29.17;;;13.13;;
42094;SDS011;27753;55.724;37.612;2024-02-16T07:21:13;24.52;;;12.68;;
42094;SDS011;27753;55.724;37.612;2024-02-16T07:23:39;26.42;;;14.75;;
42094;SDS011;27753;55.724;37.612;2024-02-16T07:26:05;21.10;;;11.80;;
42094;SDS011;27753;55.724;37.612;2024-02-16T07:30:58;28.23;;;13.18;;
42094;SDS011;27753;55.724;37.612;2024-02-16T07:33:23;29.40;;;15.75;;
42094;SDS011;27753;55.724;37.612;2024-02-16T07:35:50;22.45;;;14.20;;
42094;SDS011;27753;55.724;37.612;2024-02-16T07:38:17;23.23;;;12.35;;
42094;SDS011;27753;55.724;37.612;2024-02-16T07:40:43;21.80;;;13.02;;
42094;SDS011;27753;55.724;37.612;2024-02-16T07:43:11;30.05;;;15.57;;
42094;SDS011;27753;55.724;37.612;2024-02-16T07:45:36;27.50;;;14.57;;
42094;SDS011;27753;55.724;37.612;2024-02-16T07:48:02;27.75;;;14.10;;
42094;SDS011;27753;55.724;37.612;2024-02-16T07:50:30;23.75;;;15.35;;
42094;SDS011;27753;55.724;37.612;2024-02-16T07:52:57;26.23;;;13.10;;
42094;SDS011;27753;55.724;37.612;2024-02-16T07:55:23;28.52;;;13.60;;
42094;SDS011;27753;55.724;37.612;2024-02-16T07:57:49;30.73;;;13.88;;
42094;SDS011;27753;55.724;37.612;2024-02-16T08:00:16;26.17;;;13.65;;
42094;SDS011;27753;55.724;37.612;2024-02-16T08:02:42;25.50;;;13.10;;
42094;SDS011;27753;55.724;37.612;2024-02-16T08:05:08;30.85;;;15.68;;
42094;SDS011;27753;55.724;37.612;2024-02-16T08:07:38;28.02;;;15.80;;
42094;SDS011;27753;55.724;37.612;2024-02-16T08:10:07;26.30;;;15.48;;
42094;SDS011;27753;55.724;37.612;2024-02-16T08:12:34;27.52;;;17.52;;
42094;SDS011;27753;55.724;37.612;2024-02-16T08:15:03;27.00;;;12.95;;
42094;SDS011;27753;55.724;37.612;2024-02-16T08:17:32;26.85;;;15.25;;
42094;SDS011;27753;55.724;37.612;2024-02-16T08:19:59;24.60;;;13.38;;
42094;SDS011;27753;55.724;37.612;2024-02-16T08:22:25;26.27;;;14.43;;
42094;SDS011;27753;55.724;37.612;2024-02-16T08:24:51;27.30;;;13.65;;
42094;SDS011;27753;55.724;37.612;2024-02-16T08:27:17;24.35;;;14.20;;
42094;SDS011;27753;55.724;37.612;2024-02-16T08:29:43;26.30;;;15.05;;
42094;SDS011;27753;55.724;37.612;2024-02-16T08:32:09;32.08;;;16.50;;
42094;SDS011;27753;55.724;37.612;2024-02-16T08:34:36;28.75;;;14.80;;
42094;SDS011;27753;55.724;37.612;2024-02-16T08:37:02;25.92;;;15.43;;
42094;SDS011;27753;55.724;37.612;2024-02-16T08:39:29;34.60;;;19.13;;
42094;SDS011;27753;55.724;37.612;2024-02-16T08:41:56;25.77;;;16.00;;
42094;SDS011;27753;55.724;37.612;2024-02-16T08:44:22;29.17;;;13.97;;
42094;SDS011;27753;55.724;37.612;2024-02-16T08:46:51;25.52;;;15.07;;
42094;SDS011;27753;55.724;37.612;2024-02-16T08:49:18;26.92;;;13.32;;
42094;SDS011;27753;55.724;37.612;2024-02-16T08:51:44;34.33;;;17.23;;
42094;SDS011;27753;55.724;37.612;2024-02-16T08:54:10;34.55;;;16.95;;
42094;SDS011;27753;55.724;37.612;2024-02-16T08:56:36;32.58;;;16.02;;
42094;SDS011;27753;55.724;37.612;2024-02-16T08:59:04;29.70;;;16.33;;
42094;SDS011;27753;55.724;37.612;2024-02-16T09:01:31;24.87;;;13.67;;
42094;SDS011;27753;55.724;37.612;2024-02-16T09:06:23;25.95;;;14.60;;
42094;SDS011;27753;55.724;37.612;2024-02-16T09:08:52;25.63;;;15.23;;
42094;SDS011;27753;55.724;37.612;2024-02-16T09:11:19;25.45;;;14.55;;
42094;SDS011;27753;55.724;37.612;2024-02-16T09:13:45;29.33;;;16.40;;
42094;SDS011;27753;55.724;37.612;2024-02-16T09:16:11;29.27;;;15.73;;
42094;SDS011;27753;55.724;37.612;2024-02-16T09:18:37;27.65;;;16.25;;
42094;SDS011;27753;55.724;37.612;2024-02-16T09:21:03;28.35;;;15.38;;
42094;SDS011;27753;55.724;37.612;2024-02-16T09:23:29;27.63;;;14.27;;
42094;SDS011;27753;55.724;37.612;2024-02-16T09:25:56;26.52;;;14.85;;
42094;SDS011;27753;55.724;37.612;2024-02-16T09:28:21;34.97;;;16.50;;
42094;SDS011;27753;55.724;37.612;2024-02-16T09:30:47;29.38;;;15.93;;
42094;SDS011;27753;55.724;37.612;2024-02-16T09:33:13;33.22;;;17.83;;
42094;SDS011;27753;55.724;37.612;2024-02-16T09:35:42;31.40;;;17.08;;
42094;SDS011;27753;55.724;37.612;2024-02-16T09:38:09;30.30;;;16.63;;
42094;SDS011;27753;55.724;37.612;2024-02-16T09:40:35;34.80;;;18.90;;
42094;SDS011;27753;55.724;37.612;2024-02-16T09:43:02;27.75;;;15.82;;
42094;SDS011;27753;55.724;37.612;2024-02-16T09:45:28;34.58;;;18.58;;
42094;SDS011;27753;55.724;37.612;2024-02-16T09:47:56;31.10;;;15.63;;
42094;SDS011;27753;55.724;37.612;2024-02-16T09:50:23;22.20;;;14.52;;
42094;SDS011;27753;55.724;37.612;2024-02-16T09:52:49;31.45;;;16.23;;
42094;SDS011;27753;55.724;37.612;2024-02-16T09:55:16;31.20;;;16.37;;
42094;SDS011;27753;55.724;37.612;2024-02-16T09:57:45;27.85;;;17.70;;
42094;SDS011;27753;55.724;37.612;2024-02-16T10:00:12;31.23;;;19.65;;
42094;SDS011;27753;55.724;37.612;2024-02-16T10:02:45;29.80;;;17.55;;
42094;SDS011;27753;55.724;37.612;2024-02-16T10:07:38;32.40;;;17.58;;
42094;SDS011;27753;55.724;37.612;2024-02-16T10:10:05;30.85;;;17.48;;
42094;SDS011;27753;55.724;37.612;2024-02-16T10:12:31;31.70;;;16.88;;
42094;SDS011;27753;55.724;37.612;2024-02-16T10:14:57;32.00;;;17.00;;
42094;SDS011;27753;55.724;37.612;2024-02-16T10:17:25;23.05;;;15.25;;
42094;SDS011;27753;55.724;37.612;2024-02-16T10:19:57;31.83;;;17.10;;
42094;SDS011;27753;55.724;37.612;2024-02-16T10:22:24;32.72;;;17.75;;
42094;SDS011;27753;55.724;37.612;2024-02-16T10:24:50;40.60;;;25.60;;
42094;SDS011;27753;55.724;37.612;2024-02-16T10:27:17;32.90;;;17.83;;
42094;SDS011;27753;55.724;37.612;2024-02-16T10:29:43;37.63;;;17.08;;
42094;SDS011;27753;55.724;37.612;2024-02-16T10:32:15;34.80;;;19.08;;
42094;SDS011;27753;55.724;37.612;2024-02-16T10:34:42;29.30;;;19.10;;
42094;SDS011;27753;55.724;37.612;2024-02-16T10:37:10;27.02;;;15.80;;
42094;SDS011;27753;55.724;37.612;2024-02-16T10:39:37;29.65;;;17.95;;
42094;SDS011;27753;55.724;37.612;2024-02-16T10:42:04;29.52;;;17.08;;
42094;SDS011;27753;55.724;37.612;2024-02-16T10:44:31;33.55;;;18.60;;
42094;SDS011;27753;55.724;37.612;2024-02-16T10:46:58;26.17;;;15.75;;
42094;SDS011;27753;55.724;37.612;2024-02-16T10:49:24;31.50;;;17.38;;
42094;SDS011;27753;55.724;37.612;2024-02-16T10:51:52;24.75;;;16.00;;
42094;SDS011;27753;55.724;37.612;2024-02-16T10:54:25;30.38;;;16.80;;
42094;SDS011;27753;55.724;37.612;2024-02-16T10:56:54;32.42;;;18.85;;
42094;SDS011;27753;55.724;37.612;2024-02-16T10:59:20;33.17;;;19.65;;
42094;SDS011;27753;55.724;37.612;2024-02-16T11:01:46;29.33;;;16.92;;
42094;SDS011;27753;55.724;37.612;2024-02-16T11:04:16;27.45;;;17.95;;
42094;SDS011;27753;55.724;37.612;2024-02-16T11:09:34;30.92;;;16.52;;
42094;SDS011;27753;55.724;37.612;2024-02-16T11:12:01;28.98;;;16.02;;
42094;SDS011;27753;55.724;37.612;2024-02-16T11:17:02;25.13;;;15.50;;
42094;SDS011;27753;55.724;37.612;2024-02-16T11:19:33;25.95;;;17.02;;
42094;SDS011;27753;55.724;37.612;2024-02-16T11:22:02;40.28;;;21.83;;
42094;SDS011;27753;55.724;37.612;2024-02-16T11:24:32;29.52;;;18.33;;
42094;SDS011;27753;55.724;37.612;2024-02-16T11:27:01;31.90;;;15.30;;
42094;SDS011;27753;55.724;37.612;2024-02-16T11:29:35;30.75;;;16.42;;
42094;SDS011;27753;55.724;37.612;2024-02-16T11:32:03;29.85;;;16.92;;
42094;SDS011;27753;55.724;37.612;2024-02-16T11:34:30;28.50;;;16.85;;
42094;SDS011;27753;55.724;37.612;2024-02-16T11:36:57;26.10;;;16.20;;
42094;SDS011;27753;55.724;37.612;2024-02-16T11:42:07;37.73;;;19.27;;
42094;SDS011;27753;55.724;37.612;2024-02-16T11:44:36;37.67;;;18.25;;
42094;SDS011;27753;55.724;37.612;2024-02-16T11:47:05;27.95;;;16.05;;
42094;SDS011;27753;55.724;37.612;2024-02-16T11:49:32;28.08;;;16.63;;
42094;SDS011;27753;55.724;37.612;2024-02-16T11:52:03;29.63;;;16.80;;
42094;SDS011;27753;55.724;37.612;2024-02-16T11:54:30;31.50;;;19.88;;
42094;SDS011;27753;55.724;37.612;2024-02-16T11:56:56;31.55;;;18.80;;
42094;SDS011;27753;55.724;37.612;2024-02-16T11:59:22;26.30;;;15.32;;
42094;SDS011;27753;55.724;37.612;2024-02-16T12:01:52;28.55;;;16.70;;
42094;SDS011;27753;55.724;37.612;2024-02-16T12:04:20;31.70;;;18.10;;
42094;SDS011;27753;55.724;37.612;2024-02-16T12:06:46;30.52;;;17.63;;
42094;SDS011;27753;55.724;37.612;2024-02-16T12:09:15;33.13;;;17.60;;
42094;SDS011;27753;55.724;37.612;2024-02-16T12:11:42;28.38;;;17.52;;
42094;SDS011;27753;55.724;37.612;2024-02-16T12:14:08;28.17;;;18.40;;
42094;SDS011;27753;55.724;37.612;2024-02-16T12:16:34;27.80;;;16.35;;
42094;SDS011;27753;55.724;37.612;2024-02-16T12:19:06;28.33;;;18.55;;
42094;SDS011;27753;55.724;37.612;2024-02-16T12:21:34;30.35;;;18.33;;
42094;SDS011;27753;55.724;37.612;2024-02-16T12:24:01;27.73;;;17.05;;
42094;SDS011;27753;55.724;37.612;2024-02-16T12:26:27;30.15;;;19.63;;
42094;SDS011;27753;55.724;37.612;2024-02-16T12:28:53;37.30;;;18.45;;
42094;SDS011;27753;55.724;37.612;2024-02-16T12:31:22;24.02;;;14.52;;
42094;SDS011;27753;55.724;37.612;2024-02-16T12:33:48;31.60;;;17.23;;
42094;SDS011;27753;55.724;37.612;2024-02-16T12:36:14;29.02;;;17.52;;
42094;SDS011;27753;55.724;37.612;2024-02-16T12:38:42;27.40;;;16.63;;
42094;SDS011;27753;55.724;37.612;2024-02-16T12:41:08;30.33;;;17.45;;
42094;SDS011;27753;55.724;37.612;2024-02-16T12:43:34;28.30;;;18.98;;
42094;SDS011;27753;55.724;37.612;2024-02-16T12:46:00;35.80;;;18.17;;
42094;SDS011;27753;55.724;37.612;2024-02-16T12:48:29;33.53;;;19.60;;
42094;SDS011;27753;55.724;37.612;2024-02-16T12:50:55;40.05;;;18.10;;
42094;SDS011;27753;55.724;37.612;2024-02-16T12:53:23;34.42;;;16.67;;
42094;SDS011;27753;55.724;37.612;2024-02-16T12:55:50;33.22;;;18.20;;
42094;SDS011;27753;55.724;37.612;2024-02-16T12:58:17;32.85;;;18.90;;
42094;SDS011;27753;55.724;37.612;2024-02-16T13:00:43;34.08;;;18.17;;
42094;SDS011;27753;55.724;37.612;2024-02-16T13:03:09;32.05;;;17.58;;
42094;SDS011;27753;55.724;37.612;2024-02-16T13:05:35;27.85;;;16.02;;
42094;SDS011;27753;55.724;37.612;2024-02-16T13:08:01;29.38;;;18.40;;
42094;SDS011;27753;55.724;37.612;2024-02-16T13:10:28;27.95;;;17.45;;
42094;SDS011;27753;55.724;37.612;2024-02-16T13:12:55;35.08;;;18.58;;
42094;SDS011;27753;55.724;37.612;2024-02-16T13:15:21;26.15;;;18.13;;
42094;SDS011;27753;55.724;37.612;2024-02-16T13:17:47;35.22;;;19.17;;
42094;SDS011;27753;55.724;37.612;2024-02-16T13:20:13;34.00;;;18.88;;
42094;SDS011;27753;55.724;37.612;2024-02-16T13:22:39;24.25;;;15.32;;
42094;SDS011;27753;55.724;37.612;2024-02-16T13:25:06;31.83;;;15.82;;
42094;SDS011;27753;55.724;37.612;2024-02-16T13:27:32;24.50;;;14.70;;
42094;SDS011;27753;55.724;37.612;2024-02-16T13:29:59;32.20;;;17.48;;
42094;SDS011;27753;55.724;37.612;2024-02-16T13:32:26;30.15;;;16.70;;
42094;SDS011;27753;55.724;37.612;2024-02-16T13:34:52;37.88;;;16.55;;
42094;SDS011;27753;55.724;37.612;2024-02-16T13:37:18;27.92;;;15.23;;
42094;SDS011;27753;55.724;37.612;2024-02-16T13:39:44;33.38;;;17.90;;
42094;SDS011;27753;55.724;37.612;2024-02-16T13:42:11;31.70;;;16.65;;
42094;SDS011;27753;55.724;37.612;2024-02-16T13:44:38;32.17;;;18.55;;
42094;SDS011;27753;55.724;37.612;2024-02-16T13:47:04;34.03;;;17.42;;
42094;SDS011;27753;55.724;37.612;2024-02-16T13:49:30;30.60;;;17.23;;
42094;SDS011;27753;55.724;37.612;2024-02-16T13:51:56;24.45;;;15.77;;
42094;SDS011;27753;55.724;37.612;2024-02-16T13:54:24;30.77;;;16.60;;
42094;SDS011;27753;55.724;37.612;2024-02-16T13:56:50;32.28;;;15.38;;
42094;SDS011;27753;55.724;37.612;2024-02-16T13:59:17;26.42;;;14.15;;
42094;SDS011;27753;55.724;37.612;2024-02-16T14:01:44;27.33;;;14.55;;
42094;SDS011;27753;55.724;37.612;2024-02-16T14:04:10;26.45;;;14.65;;
42094;SDS011;27753;55.724;37.612;2024-02-16T14:06:36;30.27;;;16.77;;
42094;SDS011;27753;55.724;37.612;2024-02-16T14:09:02;32.28;;;16.60;;
42094;SDS011;27753;55.724;37.612;2024-02-16T14:11:34;32.58;;;17.60;;
42094;SDS011;27753;55.724;37.612;2024-02-16T14:16:27;25.48;;;12.52;;
42094;SDS011;27753;55.724;37.612;2024-02-16T14:18:57;24.92;;;14.48;;
42094;SDS011;27753;55.724;37.612;2024-02-16T14:21:23;27.40;;;14.25;;
42094;SDS011;27753;55.724;37.612;2024-02-16T14:23:49;27.08;;;14.90;;